createdAt,value
2024-03-14T00:01:01.885Z,12.13
2024-03-14T00:03:29.853Z,11.85
2024-03-14T00:05:57.355Z,11.20
2024-03-14T00:08:24.227Z,11.20
2024-03-14T00:10:53.026Z,11.13
2024-03-14T00:13:19.919Z,11.07
2024-03-14T00:15:47.020Z,10.73
2024-03-14T00:18:14.079Z,10.18
2024-03-14T00:20:44.072Z,11.55
2024-03-14T00:23:11.104Z,10.25
2024-03-14T00:25:37.977Z,11.05
2024-03-14T00:28:05.221Z,11.63
2024-03-14T00:30:32.779Z,10.45
2024-03-14T00:33:00.801Z,10.77
2024-03-14T00:35:30.995Z,10.88
2024-03-14T00:37:57.908Z,10.80
2024-03-14T00:40:24.983Z,11.55
2024-03-14T00:42:52.806Z,10.82
2024-03-14T00:45:20.748Z,10.10
2024-03-14T00:47:47.930Z,10.07
2024-03-14T00:50:14.948Z,11.50
2024-03-14T00:52:41.825Z,11.10
2024-03-14T00:55:11.232Z,10.63
2024-03-14T00:57:38.364Z,10.40
2024-03-14T01:00:12.224Z,10.63
2024-03-14T01:02:39.172Z,9.70
2024-03-14T01:05:07.040Z,12.30
2024-03-14T01:07:34.149Z,10.90
2024-03-14T01:10:01.232Z,11.90
2024-03-14T01:12:28.238Z,12.35
2024-03-14T01:14:55.314Z,12.18
2024-03-14T01:17:29.741Z,12.40
2024-03-14T01:19:56.745Z,11.90
2024-03-14T01:22:23.972Z,12.35
2024-03-14T01:24:50.930Z,11.68
2024-03-14T01:27:20.063Z,13.32
2024-03-14T01:29:47.417Z,12.40
2024-03-14T01:32:15.025Z,12.45
2024-03-14T01:34:42.039Z,12.77
2024-03-14T01:37:12.049Z,12.30
2024-03-14T01:39:39.183Z,11.88
2024-03-14T01:42:07.088Z,12.18
2024-03-14T01:44:58.556Z,11.50
2024-03-14T01:47:26.115Z,13.13
2024-03-14T01:49:53.573Z,13.48
2024-03-14T01:52:21.270Z,12.32
2024-03-14T01:54:50.096Z,12.68
2024-03-14T01:57:18.352Z,13.07
2024-03-14T01:59:51.717Z,12.68
2024-03-14T02:02:19.266Z,12.57
2024-03-14T02:04:49.102Z,11.80
2024-03-14T02:07:19.469Z,12.32
2024-03-14T02:09:49.988Z,11.88
2024-03-14T02:12:17.074Z,14.55
2024-03-14T02:14:44.299Z,14.05
2024-03-14T02:17:11.642Z,13.60
2024-03-14T02:19:40.044Z,13.75
2024-03-14T02:22:07.043Z,13.13
2024-03-14T02:24:33.974Z,13.88
2024-03-14T02:27:05.935Z,14.00
2024-03-14T02:29:33.093Z,13.93
2024-03-14T02:32:00.052Z,14.13
2024-03-14T02:34:27.037Z,12.43
2024-03-14T02:36:54.013Z,13.55
2024-03-14T02:39:31.304Z,13.73
2024-03-14T02:41:58.422Z,14.20
2024-03-14T02:44:25.330Z,13.48
2024-03-14T02:46:52.388Z,13.23
2024-03-14T02:49:22.184Z,12.82
2024-03-14T02:51:49.010Z,12.57
2024-03-14T02:54:17.079Z,14.23
2024-03-14T02:56:48.589Z,14.15
2024-03-14T02:59:15.924Z,14.85
2024-03-14T03:01:44.059Z,14.80
2024-03-14T03:04:11.330Z,14.52
2024-03-14T03:06:46.255Z,14.93
2024-03-14T03:09:13.401Z,15.35
2024-03-14T03:11:40.463Z,15.85
2024-03-14T03:14:07.424Z,15.27
2024-03-14T03:16:34.717Z,15.05
2024-03-14T03:19:02.198Z,15.13
2024-03-14T03:21:29.255Z,16.50
2024-03-14T03:23:56.527Z,16.05
2024-03-14T03:26:24.163Z,15.88
2024-03-14T03:28:52.161Z,15.05
2024-03-14T03:31:19.277Z,14.48
2024-03-14T03:33:46.488Z,15.50
2024-03-14T03:36:15.695Z,15.38
2024-03-14T03:38:43.879Z,17.23
2024-03-14T03:41:13.892Z,15.95
2024-03-14T03:43:41.287Z,16.80
2024-03-14T03:46:08.462Z,16.35
2024-03-14T03:48:39.068Z,16.45
2024-03-14T03:51:06.970Z,15.63
2024-03-14T03:53:34.193Z,15.93
2024-03-14T03:56:04.288Z,16.63
2024-03-14T03:58:34.201Z,15.82
2024-03-14T04:15:01.408Z,20.70
2024-03-14T04:17:28.356Z,20.83
2024-03-14T04:19:55.286Z,19.52
2024-03-14T04:22:22.196Z,20.55
2024-03-14T04:24:49.263Z,19.92
2024-03-14T04:27:17.302Z,20.33
2024-03-14T04:29:44.669Z,19.13
2024-03-14T04:32:14.488Z,21.85
2024-03-14T04:34:41.466Z,22.15
2024-03-14T04:37:08.520Z,22.30
2024-03-14T04:39:35.576Z,22.20
2024-03-14T04:42:02.568Z,22.02
2024-03-14T04:44:29.897Z,22.45
2024-03-14T04:47:00.201Z,24.75
2024-03-14T04:49:27.748Z,24.58
2024-03-14T04:51:56.295Z,25.77
2024-03-14T04:54:24.873Z,28.15
2024-03-14T04:56:51.952Z,26.55
2024-03-14T04:59:19.116Z,25.48
2024-03-14T05:01:46.009Z,24.48
2024-03-14T05:04:14.070Z,22.17
2024-03-14T05:06:46.389Z,20.17
2024-03-14T05:09:13.349Z,12.80
2024-03-14T05:11:40.372Z,11.30
2024-03-14T05:14:07.868Z,6.78
2024-03-14T05:16:34.712Z,5.00
2024-03-14T05:19:02.279Z,4.40
2024-03-14T05:21:29.477Z,2.83
2024-03-14T05:23:56.513Z,2.90
2024-03-14T05:26:23.381Z,2.60
2024-03-14T05:28:50.384Z,2.55
2024-03-14T05:31:18.558Z,2.67
2024-03-14T05:33:45.446Z,2.67
2024-03-14T05:36:12.624Z,2.33
2024-03-14T05:38:39.513Z,2.75
2024-03-14T05:41:07.155Z,2.80
2024-03-14T05:43:36.342Z,3.00
2024-03-14T05:46:04.350Z,2.17
2024-03-14T05:48:31.351Z,2.45
2024-03-14T05:50:58.707Z,2.75
2024-03-14T05:53:30.304Z,3.03
2024-03-14T05:55:57.110Z,3.25
2024-03-14T05:58:24.357Z,3.58
2024-03-14T06:00:52.652Z,4.13
2024-03-14T06:03:19.633Z,4.55
2024-03-14T06:05:46.638Z,4.80
2024-03-14T06:08:13.985Z,5.43
2024-03-14T06:10:40.985Z,5.95
2024-03-14T06:13:08.411Z,6.75
2024-03-14T06:15:36.771Z,6.57
2024-03-14T06:18:06.809Z,6.50
2024-03-14T06:20:35.656Z,6.00
2024-03-14T06:23:03.887Z,6.45
2024-03-14T06:25:32.101Z,5.90
2024-03-14T06:27:59.133Z,6.25
2024-03-14T06:30:28.042Z,6.68
2024-03-14T06:32:55.352Z,6.65
2024-03-14T06:35:22.982Z,7.20
2024-03-14T06:37:55.183Z,8.38
2024-03-14T06:40:24.198Z,9.63
2024-03-14T06:42:51.296Z,9.77
2024-03-14T06:45:18.590Z,9.90
2024-03-14T06:47:47.833Z,11.88
2024-03-14T06:50:16.880Z,12.93
2024-03-14T06:52:44.502Z,13.95
2024-03-14T06:55:11.763Z,15.30
2024-03-14T06:57:41.714Z,12.57
2024-03-14T07:02:45.783Z,12.60
2024-03-14T07:05:16.921Z,10.98
2024-03-14T07:07:48.644Z,10.73
2024-03-14T07:10:16.745Z,10.80
2024-03-14T07:12:52.649Z,10.07
2024-03-14T07:15:19.975Z,9.38
2024-03-14T07:17:47.436Z,9.98
2024-03-14T07:20:27.279Z,9.18
2024-03-14T07:22:54.868Z,9.85
2024-03-14T07:25:28.113Z,10.20
2024-03-14T07:27:55.853Z,9.60
2024-03-14T07:30:29.067Z,9.88
2024-03-14T07:32:59.330Z,10.05
2024-03-14T07:35:30.658Z,9.75
2024-03-14T07:37:58.114Z,9.48
2024-03-14T07:40:37.033Z,9.68
2024-03-14T07:43:04.564Z,10.38
2024-03-14T07:45:31.733Z,10.35
2024-03-14T07:48:00.947Z,11.32
2024-03-14T07:50:29.660Z,11.00
2024-03-14T07:52:58.291Z,10.98
2024-03-14T07:55:27.218Z,13.40
2024-03-14T07:57:57.713Z,12.45
2024-03-14T08:00:29.930Z,12.30
2024-03-14T08:03:02.468Z,12.30
2024-03-14T08:05:34.694Z,12.75
2024-03-14T08:08:15.130Z,12.73
2024-03-14T08:13:26.794Z,12.25
2024-03-14T08:15:56.946Z,11.85
2024-03-14T08:18:24.823Z,11.40
2024-03-14T08:21:00.043Z,12.82
2024-03-14T08:23:29.221Z,12.30
2024-03-14T08:25:58.843Z,12.23
2024-03-14T08:28:26.426Z,12.25
2024-03-14T08:30:55.255Z,12.05
2024-03-14T08:33:26.021Z,12.95
2024-03-14T08:35:54.699Z,12.02
2024-03-14T08:38:24.633Z,11.07
2024-03-14T08:40:53.761Z,11.57
2024-03-14T08:43:21.916Z,11.02
2024-03-14T08:45:50.910Z,10.35
2024-03-14T08:48:19.948Z,10.93
2024-03-14T08:50:52.254Z,11.15
2024-03-14T08:53:20.406Z,11.10
2024-03-14T08:55:57.517Z,11.30
2024-03-14T08:58:32.316Z,9.88
2024-03-14T09:01:03.762Z,10.55
2024-03-14T09:03:33.082Z,11.70
2024-03-14T09:06:00.007Z,10.50
2024-03-14T09:08:28.701Z,8.85
2024-03-14T09:10:56.258Z,9.13
2024-03-14T09:13:23.942Z,8.68
2024-03-14T09:15:52.720Z,9.73
2024-03-14T09:18:27.876Z,9.50
2024-03-14T09:20:57.769Z,9.50
2024-03-14T09:23:27.197Z,8.90
2024-03-14T09:25:55.046Z,9.02
2024-03-14T09:28:22.660Z,9.07
2024-03-14T09:31:00.390Z,8.82
2024-03-14T09:33:30.598Z,9.20
2024-03-14T09:35:58.071Z,9.05
2024-03-14T09:38:25.245Z,8.52
2024-03-14T09:40:57.278Z,10.52
2024-03-14T09:43:30.303Z,7.95
2024-03-14T09:45:58.503Z,8.48
2024-03-14T09:48:32.914Z,8.43
2024-03-14T09:51:06.903Z,7.20
2024-03-14T09:53:37.384Z,11.20
2024-03-14T09:56:09.206Z,11.77
2024-03-14T09:58:37.112Z,10.18
2024-03-14T10:01:13.916Z,10.38
2024-03-14T10:03:41.992Z,9.75
2024-03-14T10:06:22.133Z,11.13
2024-03-14T10:08:50.385Z,10.93
2024-03-14T10:11:20.618Z,12.93
2024-03-14T10:13:49.050Z,13.75
2024-03-14T10:16:24.058Z,12.75
2024-03-14T10:18:52.726Z,15.30
2024-03-14T10:21:36.429Z,13.82
2024-03-14T10:24:03.884Z,12.02
2024-03-14T10:26:32.362Z,13.00
2024-03-14T10:29:06.960Z,14.63
2024-03-14T10:31:34.492Z,16.50
2024-03-14T10:34:02.166Z,16.60
2024-03-14T10:36:34.660Z,14.60
2024-03-14T10:39:04.029Z,15.80
2024-03-14T10:41:35.241Z,17.70
2024-03-14T10:44:05.559Z,14.48
2024-03-14T10:46:34.853Z,15.70
2024-03-14T10:49:06.276Z,16.02
2024-03-14T10:51:34.349Z,16.00
2024-03-14T10:54:05.427Z,18.17
2024-03-14T10:56:34.565Z,20.38
2024-03-14T10:59:03.908Z,19.10
2024-03-14T11:01:32.201Z,21.25
2024-03-14T11:04:04.081Z,18.60
2024-03-14T11:06:38.349Z,16.95
2024-03-14T11:09:11.001Z,16.55
2024-03-14T11:11:47.256Z,15.00
2024-03-14T11:14:15.617Z,15.38
2024-03-14T11:16:50.180Z,13.73
2024-03-14T11:19:22.489Z,13.93
2024-03-14T11:21:51.355Z,13.95
2024-03-14T11:24:23.010Z,14.45
2024-03-14T11:26:53.900Z,13.45
2024-03-14T11:29:23.234Z,13.38
2024-03-14T11:32:11.636Z,15.80
2024-03-14T11:34:39.057Z,14.48
2024-03-14T11:37:07.150Z,15.18
2024-03-14T11:39:41.150Z,13.73
2024-03-14T11:42:15.337Z,13.65
2024-03-14T11:44:46.909Z,16.02
2024-03-14T11:47:43.513Z,14.90
2024-03-14T11:50:12.205Z,15.87
2024-03-14T11:52:40.390Z,15.40
2024-03-14T11:55:13.554Z,17.20
2024-03-14T11:57:46.237Z,17.70
2024-03-14T12:04:30.889Z,19.53
2024-03-14T12:07:00.126Z,18.00
2024-03-14T12:09:32.751Z,16.73
2024-03-14T12:12:00.879Z,15.00
2024-03-14T12:14:30.042Z,17.80
2024-03-14T12:16:58.186Z,18.17
2024-03-14T12:19:27.217Z,18.08
2024-03-14T12:21:57.728Z,18.98
2024-03-14T12:24:25.115Z,18.17
2024-03-14T12:26:55.631Z,19.15
2024-03-14T12:29:23.484Z,19.35
2024-03-14T12:31:50.566Z,19.27
2024-03-14T12:34:21.444Z,20.00
2024-03-14T12:36:49.709Z,19.55
2024-03-14T12:39:18.779Z,19.05
2024-03-14T12:41:46.285Z,19.80
2024-03-14T12:44:15.993Z,19.30
2024-03-14T12:46:43.448Z,16.85
2024-03-14T12:49:12.711Z,16.27
2024-03-14T12:51:39.851Z,18.00
2024-03-14T12:54:08.396Z,18.52
2024-03-14T12:56:35.775Z,17.73
2024-03-14T12:59:04.373Z,18.67
2024-03-14T13:01:39.301Z,18.42
2024-03-14T13:04:12.258Z,17.80
2024-03-14T13:06:43.514Z,17.73
2024-03-14T13:09:22.265Z,17.98
2024-03-14T13:12:26.165Z,17.15
2024-03-14T13:15:03.518Z,15.50
2024-03-14T13:17:31.661Z,16.15
2024-03-14T13:20:01.930Z,15.65
2024-03-14T13:22:34.309Z,16.88
2024-03-14T13:25:01.424Z,18.10
2024-03-14T13:27:29.098Z,18.48
2024-03-14T13:29:58.944Z,19.38
2024-03-14T13:32:29.570Z,17.40
2024-03-14T13:34:59.802Z,17.13
2024-03-14T13:37:30.270Z,18.73
2024-03-14T13:39:57.765Z,18.33
2024-03-14T13:42:25.473Z,19.20
2024-03-14T13:44:53.896Z,18.67
2024-03-14T13:47:27.433Z,18.98
2024-03-14T13:49:59.703Z,19.27
2024-03-14T13:52:27.878Z,18.08
2024-03-14T13:54:59.776Z,19.90
2024-03-14T13:57:26.821Z,19.40
2024-03-14T13:59:55.544Z,18.00
2024-03-14T14:02:23.207Z,15.95
2024-03-14T14:04:51.223Z,16.92
2024-03-14T14:07:20.180Z,17.55
2024-03-14T14:09:47.498Z,25.27
2024-03-14T14:12:15.898Z,21.27
2024-03-14T14:14:44.704Z,17.75
2024-03-14T14:17:11.802Z,20.67
2024-03-14T14:19:38.893Z,17.58
2024-03-14T14:22:09.766Z,22.25
2024-03-14T14:24:37.303Z,21.40
2024-03-14T14:27:04.953Z,20.27
2024-03-14T14:29:32.617Z,18.48
2024-03-14T14:31:59.583Z,19.75
2024-03-14T14:34:26.740Z,21.92
2024-03-14T14:36:54.495Z,19.15
2024-03-14T14:39:22.793Z,19.58
2024-03-14T14:41:49.898Z,19.40
2024-03-14T14:44:17.064Z,22.50
2024-03-14T14:46:45.459Z,27.27
2024-03-14T14:49:13.356Z,33.55
2024-03-14T14:51:40.971Z,22.35
2024-03-14T14:54:09.954Z,22.35
2024-03-14T14:56:42.197Z,20.75
2024-03-14T14:59:09.157Z,20.02
2024-03-14T15:01:36.467Z,23.65
2024-03-14T15:04:03.823Z,29.65
2024-03-14T15:06:30.862Z,26.00
2024-03-14T15:08:58.586Z,22.67
2024-03-14T15:11:25.677Z,18.95
2024-03-14T15:13:54.532Z,21.63
2024-03-14T15:16:21.724Z,24.13
2024-03-14T15:18:50.283Z,21.75
2024-03-14T15:21:19.684Z,22.17
2024-03-14T15:23:47.089Z,21.30
2024-03-14T15:26:16.632Z,21.40
2024-03-14T15:28:44.116Z,22.65
2024-03-14T15:31:14.800Z,33.25
2024-03-14T15:33:43.993Z,26.27
2024-03-14T15:36:18.409Z,23.98
2024-03-14T15:38:49.605Z,22.83
2024-03-14T15:41:16.695Z,21.33
2024-03-14T15:43:44.142Z,21.00
2024-03-14T15:46:14.015Z,21.58
2024-03-14T15:48:41.087Z,19.95
2024-03-14T15:51:17.121Z,20.35
2024-03-14T15:53:45.145Z,22.83
2024-03-14T15:56:19.543Z,22.48
2024-03-14T15:58:46.720Z,21.17
2024-03-14T16:01:15.407Z,20.98
2024-03-14T16:03:43.103Z,22.70
2024-03-14T16:06:10.438Z,23.55
2024-03-14T16:08:48.924Z,22.88
2024-03-14T16:11:22.641Z,22.55
2024-03-14T16:13:49.773Z,24.17
2024-03-14T16:16:20.148Z,24.02
2024-03-14T16:18:50.689Z,25.10
2024-03-14T16:21:21.245Z,24.92
2024-03-14T16:23:50.093Z,28.05
2024-03-14T16:26:22.808Z,27.38
2024-03-14T16:28:53.298Z,24.17
2024-03-14T16:31:23.838Z,26.77
2024-03-14T16:33:51.171Z,24.83
2024-03-14T16:36:21.719Z,23.48
2024-03-14T16:38:53.666Z,24.65
2024-03-14T16:41:20.762Z,24.23
2024-03-14T16:43:49.130Z,24.95
2024-03-14T16:46:17.459Z,24.67
2024-03-14T16:48:45.358Z,25.13
2024-03-14T16:51:13.949Z,25.23
2024-03-14T16:53:42.492Z,25.23
2024-03-14T16:56:13.472Z,28.25
2024-03-14T16:58:41.062Z,25.63
2024-03-14T17:01:08.919Z,25.23
2024-03-14T17:03:37.029Z,29.52
2024-03-14T17:06:05.737Z,32.90
2024-03-14T17:08:33.493Z,33.50
2024-03-14T17:11:00.577Z,34.42
2024-03-14T17:13:28.713Z,31.83
2024-03-14T17:15:56.839Z,31.75
2024-03-14T17:18:29.993Z,33.97
2024-03-14T17:20:59.070Z,30.42
2024-03-14T17:23:27.432Z,30.50
2024-03-14T17:25:59.036Z,29.33
2024-03-14T17:28:27.124Z,28.75
2024-03-14T17:30:56.370Z,28.92
2024-03-14T17:33:28.228Z,25.58
2024-03-14T17:36:00.478Z,27.17
2024-03-14T17:38:29.936Z,26.35
2024-03-14T17:41:03.813Z,27.33
2024-03-14T17:43:34.198Z,27.15
2024-03-14T17:46:01.535Z,28.55
2024-03-14T17:48:28.737Z,27.55
2024-03-14T17:50:59.514Z,32.88
2024-03-14T17:53:27.442Z,32.67
2024-03-14T17:55:56.440Z,32.22
2024-03-14T17:58:23.529Z,81.78
2024-03-14T18:00:51.996Z,76.43
2024-03-14T18:03:22.123Z,77.57
2024-03-14T18:05:51.604Z,66.88
2024-03-14T18:08:20.598Z,75.35
2024-03-14T18:10:51.850Z,72.68
2024-03-14T18:13:18.781Z,65.38
2024-03-14T18:15:46.199Z,54.90
2024-03-14T18:18:13.962Z,51.65
2024-03-14T18:20:41.491Z,51.30
2024-03-14T18:23:11.179Z,57.83
2024-03-14T18:25:40.777Z,57.47
2024-03-14T18:28:08.698Z,56.08
2024-03-14T18:30:40.371Z,69.60
2024-03-14T18:33:07.776Z,62.75
2024-03-14T18:35:38.316Z,60.63
2024-03-14T18:38:06.096Z,53.03
2024-03-14T18:40:34.107Z,43.25
2024-03-14T18:43:02.209Z,40.15
2024-03-14T18:45:32.466Z,39.00
2024-03-14T18:48:05.367Z,42.20
2024-03-14T18:50:32.978Z,39.08
2024-03-14T18:53:04.214Z,44.95
2024-03-14T18:55:32.631Z,43.05
2024-03-14T18:58:00.882Z,44.22
2024-03-14T19:00:30.254Z,43.03
2024-03-14T19:03:02.340Z,42.78
2024-03-14T19:05:30.298Z,40.90
2024-03-14T19:08:01.767Z,40.30
2024-03-14T19:10:33.046Z,42.58
2024-03-14T19:13:04.694Z,42.70
2024-03-14T19:15:35.849Z,38.38
2024-03-14T19:18:03.263Z,35.58
2024-03-14T19:20:30.814Z,36.10
2024-03-14T19:23:00.483Z,33.22
2024-03-14T19:25:27.693Z,34.95
2024-03-14T19:27:55.646Z,37.33
2024-03-14T19:30:25.662Z,37.72
2024-03-14T19:32:52.992Z,36.60
2024-03-14T19:35:21.048Z,37.28
2024-03-14T19:37:50.026Z,40.83
2024-03-14T19:40:20.014Z,37.33
2024-03-14T19:42:48.607Z,41.17
2024-03-14T19:45:18.233Z,51.53
2024-03-14T19:47:49.760Z,55.83
2024-03-14T19:50:16.780Z,60.67
2024-03-14T19:52:47.660Z,64.60
2024-03-14T19:55:15.933Z,64.78
2024-03-14T19:57:43.339Z,63.03
2024-03-14T20:04:34.847Z,63.67
2024-03-14T20:07:01.846Z,63.53
2024-03-14T20:09:29.052Z,67.53
2024-03-14T20:11:57.878Z,65.43
2024-03-14T20:14:26.098Z,69.90
2024-03-14T20:16:53.323Z,75.25
2024-03-14T20:19:21.887Z,74.95
2024-03-14T20:21:51.798Z,72.95
2024-03-14T20:24:20.385Z,82.10
2024-03-14T20:26:47.685Z,90.35
2024-03-14T20:29:14.755Z,90.78
2024-03-14T20:31:42.507Z,94.40
2024-03-14T20:34:10.135Z,89.78
2024-03-14T20:36:44.934Z,96.00
2024-03-14T20:39:14.154Z,91.63
2024-03-14T20:41:41.701Z,93.70
2024-03-14T20:44:09.734Z,91.32
2024-03-14T20:46:37.384Z,80.97
2024-03-14T20:49:05.477Z,74.28
2024-03-14T20:51:33.019Z,75.57
2024-03-14T20:54:02.566Z,73.32
2024-03-14T20:56:48.996Z,70.45
2024-03-14T20:59:19.985Z,71.97
2024-03-14T21:01:47.742Z,70.35
2024-03-14T21:04:16.521Z,69.50
2024-03-14T21:06:43.871Z,69.80
2024-03-14T21:09:13.287Z,70.95
2024-03-14T21:11:40.551Z,66.22
2024-03-14T21:14:07.570Z,65.30
2024-03-14T21:16:38.083Z,63.95
2024-03-14T21:19:06.993Z,60.05
2024-03-14T21:21:34.105Z,55.80
2024-03-14T21:24:03.450Z,49.78
2024-03-14T21:26:30.931Z,42.95
2024-03-14T21:29:01.401Z,38.55
2024-03-14T21:31:30.666Z,36.15
2024-03-14T21:33:58.979Z,34.35
2024-03-14T21:36:28.378Z,33.67
2024-03-14T21:38:56.512Z,31.70
2024-03-14T21:41:26.694Z,27.40
2024-03-14T21:43:55.699Z,29.42
2024-03-14T21:46:23.601Z,26.40
2024-03-14T21:48:53.438Z,28.05
2024-03-14T21:51:20.775Z,32.63
2024-03-14T21:53:47.988Z,31.08
2024-03-14T21:56:15.445Z,33.47
2024-03-14T21:58:49.860Z,34.28
2024-03-14T22:01:22.901Z,36.13
2024-03-14T22:03:50.460Z,39.05
2024-03-14T22:06:17.926Z,41.10
2024-03-14T22:08:47.005Z,43.85
2024-03-14T22:11:14.201Z,40.83
2024-03-14T22:13:42.636Z,45.42
2024-03-14T22:16:12.187Z,44.97
2024-03-14T22:18:39.550Z,48.75
2024-03-14T22:21:15.931Z,49.15
2024-03-14T22:23:43.100Z,50.30
2024-03-14T22:26:14.664Z,52.25
2024-03-14T22:28:41.875Z,54.00
2024-03-14T22:31:12.222Z,55.95
2024-03-14T22:33:47.152Z,58.58
2024-03-14T22:36:14.883Z,60.63
2024-03-14T22:38:43.339Z,64.25
2024-03-14T22:41:11.702Z,59.00
2024-03-14T22:43:42.123Z,60.20
2024-03-14T22:46:11.889Z,61.75
2024-03-14T22:48:52.898Z,59.97
2024-03-14T22:51:20.850Z,64.85
2024-03-14T22:53:49.226Z,65.50
2024-03-14T22:56:17.138Z,60.42
2024-03-14T22:58:45.255Z,55.65
2024-03-14T23:01:12.466Z,60.47
2024-03-14T23:03:47.517Z,59.83
2024-03-14T23:06:19.799Z,56.53
2024-03-14T23:08:46.936Z,55.97
2024-03-14T23:11:18.275Z,61.00
2024-03-14T23:13:46.030Z,66.95
2024-03-14T23:16:15.405Z,65.32
2024-03-14T23:18:42.978Z,63.75
2024-03-14T23:21:11.426Z,59.08
2024-03-14T23:23:39.606Z,57.90
2024-03-14T23:26:21.770Z,56.10
2024-03-14T23:28:52.724Z,55.40
2024-03-14T23:31:20.076Z,53.17
2024-03-14T23:33:48.950Z,49.65
2024-03-14T23:36:19.442Z,48.67
2024-03-14T23:38:47.018Z,48.85
2024-03-14T23:41:15.856Z,49.42
2024-03-14T23:43:44.109Z,53.63
2024-03-14T23:46:11.462Z,52.17
2024-03-14T23:48:41.141Z,50.05
2024-03-14T23:51:18.989Z,50.13
2024-03-14T23:53:46.034Z,49.78
2024-03-14T23:56:14.699Z,48.83
2024-03-14T23:58:42.084Z,51.95
